Terminal Aerodrome Forecast
Issued by NWS Topeka, KS

Home | Current Version | Previous Version | Text Only | Print | Product List | Glossary On
Versions: 1 2 3 4 5 6 7 8 9 10 11 12 13 14 15 16 17
965
FTUS43 KTOP 251132
TAFTOP
TAF
KTOP 251132Z 2512/2612 14010KT P6SM SCT050 BKN100
     FM251400 VRB08KT P6SM SHRA VCTS SCT025 BKN050CB
     FM251700 19011KT P6SM SCT030
     FM252300 18010KT P6SM VCTS SCT030CB
     FM260300 17009KT P6SM SCT025 BKN050=

USA.gov is the U.S. government's official web portal to all federal, state and local government web resources and services.